sensor_id;sensor_type;location;lat;lon;timestamp;temperature;humidity
69225;DHT22;56333;51.306;17.056;2023-05-24T00:01:43;16.70;78.82
69225;DHT22;56333;51.306;17.056;2023-05-24T00:03:12;16.65;78.72
69225;DHT22;56333;51.306;17.056;2023-05-24T00:04:41;16.61;78.75
69225;DHT22;56333;51.306;17.056;2023-05-24T00:06:12;16.56;78.78
69225;DHT22;56333;51.306;17.056;2023-05-24T00:07:40;16.54;78.82
69225;DHT22;56333;51.306;17.056;2023-05-24T00:09:09;16.50;78.82
69225;DHT22;56333;51.306;17.056;2023-05-24T00:10:38;16.48;79.03
69225;DHT22;56333;51.306;17.056;2023-05-24T00:12:07;16.46;79.05
69225;DHT22;56333;51.306;17.056;2023-05-24T00:13:36;16.44;79.03
69225;DHT22;56333;51.306;17.056;2023-05-24T00:15:07;16.41;79.05
69225;DHT22;56333;51.306;17.056;2023-05-24T00:16:36;16.36;79.05
69225;DHT22;56333;51.306;17.056;2023-05-24T00:18:05;16.33;79.18
69225;DHT22;56333;51.306;17.056;2023-05-24T00:19:34;16.28;79.13
69225;DHT22;56333;51.306;17.056;2023-05-24T00:21:03;16.24;79.22
69225;DHT22;56333;51.306;17.056;2023-05-24T00:22:32;16.18;79.30
69225;DHT22;56333;51.306;17.056;2023-05-24T00:24:01;16.13;79.25
69225;DHT22;56333;51.306;17.056;2023-05-24T00:25:30;16.09;79.35
69225;DHT22;56333;51.306;17.056;2023-05-24T00:26:59;16.05;79.25
69225;DHT22;56333;51.306;17.056;2023-05-24T00:28:28;16.00;79.28
69225;DHT22;56333;51.306;17.056;2023-05-24T00:29:57;15.94;79.35
69225;DHT22;56333;51.306;17.056;2023-05-24T00:31:26;15.91;79.35
69225;DHT22;56333;51.306;17.056;2023-05-24T00:32:56;15.83;79.45
69225;DHT22;56333;51.306;17.056;2023-05-24T00:34:24;15.77;79.60
69225;DHT22;56333;51.306;17.056;2023-05-24T00:35:53;15.71;79.65
69225;DHT22;56333;51.306;17.056;2023-05-24T00:37:22;15.69;79.72
69225;DHT22;56333;51.306;17.056;2023-05-24T00:38:52;15.64;79.88
69225;DHT22;56333;51.306;17.056;2023-05-24T00:40:21;15.59;80.00
69225;DHT22;56333;51.306;17.056;2023-05-24T00:41:50;15.56;80.10
69225;DHT22;56333;51.306;17.056;2023-05-24T00:43:18;15.51;80.05
69225;DHT22;56333;51.306;17.056;2023-05-24T00:44:47;15.47;80.25
69225;DHT22;56333;51.306;17.056;2023-05-24T00:46:19;15.44;80.40
69225;DHT22;56333;51.306;17.056;2023-05-24T00:47:52;15.40;80.57
69225;DHT22;56333;51.306;17.056;2023-05-24T00:49:22;15.36;80.53
69225;DHT22;56333;51.306;17.056;2023-05-24T00:50:51;15.34;80.63
69225;DHT22;56333;51.306;17.056;2023-05-24T00:52:20;15.34;80.75
69225;DHT22;56333;51.306;17.056;2023-05-24T00:53:49;15.31;80.85
69225;DHT22;56333;51.306;17.056;2023-05-24T00:55:19;15.28;80.85
69225;DHT22;56333;51.306;17.056;2023-05-24T00:56:47;15.24;80.95
69225;DHT22;56333;51.306;17.056;2023-05-24T00:58:16;15.22;81.05
69225;DHT22;56333;51.306;17.056;2023-05-24T00:59:50;15.23;81.20
69225;DHT22;56333;51.306;17.056;2023-05-24T01:01:20;15.21;81.28
69225;DHT22;56333;51.306;17.056;2023-05-24T01:02:50;15.22;81.38
69225;DHT22;56333;51.306;17.056;2023-05-24T01:04:18;15.25;81.53
69225;DHT22;56333;51.306;17.056;2023-05-24T01:05:47;15.27;81.50
69225;DHT22;56333;51.306;17.056;2023-05-24T01:07:20;15.26;81.43
69225;DHT22;56333;51.306;17.056;2023-05-24T01:09:01;15.27;81.47
69225;DHT22;56333;51.306;17.056;2023-05-24T01:10:45;15.24;81.28
69225;DHT22;56333;51.306;17.056;2023-05-24T01:12:25;15.18;81.22
69225;DHT22;56333;51.306;17.056;2023-05-24T01:14:08;15.12;81.22
69225;DHT22;56333;51.306;17.056;2023-05-24T01:15:50;15.07;81.18
69225;DHT22;56333;51.306;17.056;2023-05-24T01:17:28;15.06;81.15
69225;DHT22;56333;51.306;17.056;2023-05-24T01:21:24;14.93;81.07
69225;DHT22;56333;51.306;17.056;2023-05-24T01:23:35;14.90;80.97
69225;DHT22;56333;51.306;17.056;2023-05-24T01:25:26;14.86;81.05
69225;DHT22;56333;51.306;17.056;2023-05-24T01:27:15;14.80;81.03
69225;DHT22;56333;51.306;17.056;2023-05-24T01:28:46;14.76;81.10
69225;DHT22;56333;51.306;17.056;2023-05-24T01:30:16;14.73;81.22
69225;DHT22;56333;51.306;17.056;2023-05-24T01:31:46;14.68;81.35
69225;DHT22;56333;51.306;17.056;2023-05-24T01:33:15;14.65;81.32
69225;DHT22;56333;51.306;17.056;2023-05-24T01:34:44;14.63;81.40
69225;DHT22;56333;51.306;17.056;2023-05-24T01:36:14;14.59;81.53
69225;DHT22;56333;51.306;17.056;2023-05-24T01:37:43;14.59;81.60
69225;DHT22;56333;51.306;17.056;2023-05-24T01:39:12;14.55;81.53
69225;DHT22;56333;51.306;17.056;2023-05-24T01:40:43;14.52;81.60
69225;DHT22;56333;51.306;17.056;2023-05-24T01:42:19;14.46;81.53
69225;DHT22;56333;51.306;17.056;2023-05-24T01:44:08;14.44;81.50
69225;DHT22;56333;51.306;17.056;2023-05-24T01:45:50;14.39;81.55
69225;DHT22;56333;51.306;17.056;2023-05-24T01:47:36;14.37;81.68
69225;DHT22;56333;51.306;17.056;2023-05-24T01:49:24;14.32;81.60
69225;DHT22;56333;51.306;17.056;2023-05-24T01:51:02;14.28;81.60
69225;DHT22;56333;51.306;17.056;2023-05-24T01:52:35;14.23;81.60
69225;DHT22;56333;51.306;17.056;2023-05-24T01:54:05;14.20;81.72
69225;DHT22;56333;51.306;17.056;2023-05-24T01:55:34;14.20;81.75
69225;DHT22;56333;51.306;17.056;2023-05-24T01:57:06;14.20;81.80
69225;DHT22;56333;51.306;17.056;2023-05-24T01:58:36;14.18;81.72
69225;DHT22;56333;51.306;17.056;2023-05-24T02:00:08;14.15;81.75
69225;DHT22;56333;51.306;17.056;2023-05-24T02:01:40;14.15;81.75
69225;DHT22;56333;51.306;17.056;2023-05-24T02:03:10;14.12;81.43
69225;DHT22;56333;51.306;17.056;2023-05-24T02:04:40;14.08;81.30
69225;DHT22;56333;51.306;17.056;2023-05-24T02:06:09;14.05;81.22
69225;DHT22;56333;51.306;17.056;2023-05-24T02:07:39;13.97;81.05
69225;DHT22;56333;51.306;17.056;2023-05-24T02:09:08;13.91;81.05
69225;DHT22;56333;51.306;17.056;2023-05-24T02:10:37;13.89;81.18
69225;DHT22;56333;51.306;17.056;2023-05-24T02:12:08;13.86;81.32
69225;DHT22;56333;51.306;17.056;2023-05-24T02:13:37;13.88;81.35
69225;DHT22;56333;51.306;17.056;2023-05-24T02:15:08;13.85;81.40
69225;DHT22;56333;51.306;17.056;2023-05-24T02:16:40;13.84;81.20
69225;DHT22;56333;51.306;17.056;2023-05-24T02:18:09;13.81;81.22
69225;DHT22;56333;51.306;17.056;2023-05-24T02:19:41;13.77;81.07
69225;DHT22;56333;51.306;17.056;2023-05-24T02:21:11;13.71;80.85
69225;DHT22;56333;51.306;17.056;2023-05-24T02:22:41;13.65;80.85
69225;DHT22;56333;51.306;17.056;2023-05-24T02:24:09;13.61;80.82
69225;DHT22;56333;51.306;17.056;2023-05-24T02:25:38;13.60;80.80
69225;DHT22;56333;51.306;17.056;2023-05-24T02:27:07;13.57;80.78
69225;DHT22;56333;51.306;17.056;2023-05-24T02:28:36;13.54;80.53
69225;DHT22;56333;51.306;17.056;2023-05-24T02:30:07;13.50;80.57
69225;DHT22;56333;51.306;17.056;2023-05-24T02:31:38;13.44;80.47
69225;DHT22;56333;51.306;17.056;2023-05-24T02:33:07;13.39;80.30
69225;DHT22;56333;51.306;17.056;2023-05-24T02:34:36;13.32;80.07
69225;DHT22;56333;51.306;17.056;2023-05-24T02:36:05;13.24;79.95
69225;DHT22;56333;51.306;17.056;2023-05-24T02:37:34;13.15;79.90
69225;DHT22;56333;51.306;17.056;2023-05-24T02:39:03;13.05;79.90
69225;DHT22;56333;51.306;17.056;2023-05-24T02:40:31;12.95;80.00
69225;DHT22;56333;51.306;17.056;2023-05-24T02:42:01;12.91;80.13
69225;DHT22;56333;51.306;17.056;2023-05-24T02:43:32;12.85;80.13
69225;DHT22;56333;51.306;17.056;2023-05-24T02:45:01;12.79;80.03
69225;DHT22;56333;51.306;17.056;2023-05-24T02:46:31;12.74;80.00
69225;DHT22;56333;51.306;17.056;2023-05-24T02:48:00;12.66;80.15
69225;DHT22;56333;51.306;17.056;2023-05-24T02:49:30;12.63;80.13
69225;DHT22;56333;51.306;17.056;2023-05-24T02:50:59;12.58;80.40
69225;DHT22;56333;51.306;17.056;2023-05-24T02:52:28;12.55;80.25
69225;DHT22;56333;51.306;17.056;2023-05-24T02:53:57;12.52;80.20
69225;DHT22;56333;51.306;17.056;2023-05-24T02:55:26;12.46;80.15
69225;DHT22;56333;51.306;17.056;2023-05-24T02:56:55;12.44;80.10
69225;DHT22;56333;51.306;17.056;2023-05-24T02:58:25;12.42;80.20
69225;DHT22;56333;51.306;17.056;2023-05-24T02:59:54;12.41;80.15
69225;DHT22;56333;51.306;17.056;2023-05-24T03:01:22;12.37;80.13
69225;DHT22;56333;51.306;17.056;2023-05-24T03:02:51;12.34;80.10
69225;DHT22;56333;51.306;17.056;2023-05-24T03:04:23;12.31;80.13
69225;DHT22;56333;51.306;17.056;2023-05-24T03:05:52;12.29;80.10
69225;DHT22;56333;51.306;17.056;2023-05-24T03:07:21;12.27;80.20
69225;DHT22;56333;51.306;17.056;2023-05-24T03:08:50;12.26;80.22
69225;DHT22;56333;51.306;17.056;2023-05-24T03:10:19;12.26;80.28
69225;DHT22;56333;51.306;17.056;2023-05-24T03:11:48;12.24;80.28
69225;DHT22;56333;51.306;17.056;2023-05-24T03:13:18;12.22;80.25
69225;DHT22;56333;51.306;17.056;2023-05-24T03:14:47;12.20;80.22
69225;DHT22;56333;51.306;17.056;2023-05-24T03:16:16;12.18;80.28
69225;DHT22;56333;51.306;17.056;2023-05-24T03:17:45;12.18;80.18
69225;DHT22;56333;51.306;17.056;2023-05-24T03:19:14;12.16;80.07
69225;DHT22;56333;51.306;17.056;2023-05-24T03:20:43;12.11;79.97
69225;DHT22;56333;51.306;17.056;2023-05-24T03:22:12;12.10;79.85
69225;DHT22;56333;51.306;17.056;2023-05-24T03:23:41;12.05;79.68
69225;DHT22;56333;51.306;17.056;2023-05-24T03:25:10;11.99;79.68
69225;DHT22;56333;51.306;17.056;2023-05-24T03:26:38;11.94;79.85
69225;DHT22;56333;51.306;17.056;2023-05-24T03:28:07;11.91;80.03
69225;DHT22;56333;51.306;17.056;2023-05-24T03:29:37;11.88;80.07
69225;DHT22;56333;51.306;17.056;2023-05-24T03:31:07;11.86;80.18
69225;DHT22;56333;51.306;17.056;2023-05-24T03:32:36;11.84;80.30
69225;DHT22;56333;51.306;17.056;2023-05-24T03:34:05;11.81;80.20
69225;DHT22;56333;51.306;17.056;2023-05-24T03:35:35;11.79;80.32
69225;DHT22;56333;51.306;17.056;2023-05-24T03:37:04;11.77;80.45
69225;DHT22;56333;51.306;17.056;2023-05-24T03:38:34;11.78;80.50
69225;DHT22;56333;51.306;17.056;2023-05-24T03:40:03;11.77;80.50
69225;DHT22;56333;51.306;17.056;2023-05-24T03:42:27;11.73;80.47
69225;DHT22;56333;51.306;17.056;2023-05-24T03:43:55;11.74;80.57
69225;DHT22;56333;51.306;17.056;2023-05-24T03:45:26;11.73;80.65
69225;DHT22;56333;51.306;17.056;2023-05-24T03:46:55;11.70;80.57
69225;DHT22;56333;51.306;17.056;2023-05-24T03:48:24;11.69;80.70
69225;DHT22;56333;51.306;17.056;2023-05-24T03:49:53;11.68;80.72
69225;DHT22;56333;51.306;17.056;2023-05-24T03:51:22;11.69;80.70
69225;DHT22;56333;51.306;17.056;2023-05-24T03:52:52;11.70;80.72
69225;DHT22;56333;51.306;17.056;2023-05-24T03:54:21;11.70;80.75
69225;DHT22;56333;51.306;17.056;2023-05-24T03:55:50;11.72;80.75
69225;DHT22;56333;51.306;17.056;2023-05-24T03:57:19;11.70;80.78
69225;DHT22;56333;51.306;17.056;2023-05-24T03:58:48;11.69;80.75
69225;DHT22;56333;51.306;17.056;2023-05-24T04:00:17;11.71;80.63
69225;DHT22;56333;51.306;17.056;2023-05-24T04:01:46;11.71;80.57
69225;DHT22;56333;51.306;17.056;2023-05-24T04:03:15;11.73;80.57
69225;DHT22;56333;51.306;17.056;2023-05-24T04:04:44;11.72;80.60
69225;DHT22;56333;51.306;17.056;2023-05-24T04:06:12;11.74;80.68
69225;DHT22;56333;51.306;17.056;2023-05-24T04:07:41;11.74;80.72
69225;DHT22;56333;51.306;17.056;2023-05-24T04:09:11;11.78;80.70
69225;DHT22;56333;51.306;17.056;2023-05-24T04:10:39;11.77;80.60
69225;DHT22;56333;51.306;17.056;2023-05-24T04:12:09;11.77;80.43
69225;DHT22;56333;51.306;17.056;2023-05-24T04:13:39;11.75;80.43
69225;DHT22;56333;51.306;17.056;2023-05-24T04:15:09;11.75;80.30
69225;DHT22;56333;51.306;17.056;2023-05-24T04:16:38;11.76;80.43
69225;DHT22;56333;51.306;17.056;2023-05-24T04:18:08;11.76;80.40
69225;DHT22;56333;51.306;17.056;2023-05-24T04:19:36;11.78;80.32
69225;DHT22;56333;51.306;17.056;2023-05-24T04:21:05;11.79;80.35
69225;DHT22;56333;51.306;17.056;2023-05-24T04:22:34;11.80;80.43
69225;DHT22;56333;51.306;17.056;2023-05-24T04:24:02;11.83;80.45
69225;DHT22;56333;51.306;17.056;2023-05-24T04:25:31;11.85;80.40
69225;DHT22;56333;51.306;17.056;2023-05-24T04:27:02;11.85;80.40
69225;DHT22;56333;51.306;17.056;2023-05-24T04:28:33;11.86;80.38
69225;DHT22;56333;51.306;17.056;2023-05-24T04:30:03;11.90;80.40
69225;DHT22;56333;51.306;17.056;2023-05-24T04:31:34;11.94;80.40
69225;DHT22;56333;51.306;17.056;2023-05-24T04:33:03;11.97;80.40
69225;DHT22;56333;51.306;17.056;2023-05-24T04:34:32;12.01;80.25
69225;DHT22;56333;51.306;17.056;2023-05-24T04:36:00;12.00;80.00
69225;DHT22;56333;51.306;17.056;2023-05-24T04:37:31;11.99;79.88
69225;DHT22;56333;51.306;17.056;2023-05-24T04:39:00;11.99;79.80
69225;DHT22;56333;51.306;17.056;2023-05-24T04:40:29;11.99;79.65
69225;DHT22;56333;51.306;17.056;2023-05-24T04:41:57;11.98;79.65
69225;DHT22;56333;51.306;17.056;2023-05-24T04:43:27;11.97;79.60
69225;DHT22;56333;51.306;17.056;2023-05-24T04:44:56;11.95;79.60
69225;DHT22;56333;51.306;17.056;2023-05-24T04:46:25;11.96;79.60
69225;DHT22;56333;51.306;17.056;2023-05-24T04:47:54;11.95;79.50
69225;DHT22;56333;51.306;17.056;2023-05-24T04:49:23;11.95;79.53
69225;DHT22;56333;51.306;17.056;2023-05-24T04:50:53;11.97;79.50
69225;DHT22;56333;51.306;17.056;2023-05-24T04:52:23;11.96;79.50
69225;DHT22;56333;51.306;17.056;2023-05-24T04:53:53;11.95;79.45
69225;DHT22;56333;51.306;17.056;2023-05-24T04:55:22;11.96;79.45
69225;DHT22;56333;51.306;17.056;2023-05-24T04:56:51;11.97;79.40
69225;DHT22;56333;51.306;17.056;2023-05-24T04:58:20;11.98;79.35
69225;DHT22;56333;51.306;17.056;2023-05-24T04:59:49;11.98;79.28
69225;DHT22;56333;51.306;17.056;2023-05-24T05:01:17;11.98;79.07
69225;DHT22;56333;51.306;17.056;2023-05-24T05:02:46;11.95;79.00
69225;DHT22;56333;51.306;17.056;2023-05-24T05:04:15;11.95;78.80
69225;DHT22;56333;51.306;17.056;2023-05-24T05:05:45;11.95;78.80
69225;DHT22;56333;51.306;17.056;2023-05-24T05:07:14;11.94;78.90
69225;DHT22;56333;51.306;17.056;2023-05-24T05:08:43;11.95;78.93
69225;DHT22;56333;51.306;17.056;2023-05-24T05:10:12;11.96;79.00
69225;DHT22;56333;51.306;17.056;2023-05-24T05:11:41;11.97;79.00
69225;DHT22;56333;51.306;17.056;2023-05-24T05:13:11;11.99;78.93
69225;DHT22;56333;51.306;17.056;2023-05-24T05:14:40;11.99;78.80
69225;DHT22;56333;51.306;17.056;2023-05-24T05:16:10;11.98;78.63
69225;DHT22;56333;51.306;17.056;2023-05-24T05:17:38;12.00;78.57
69225;DHT22;56333;51.306;17.056;2023-05-24T05:19:07;11.98;78.28
69225;DHT22;56333;51.306;17.056;2023-05-24T05:20:35;11.97;78.15
69225;DHT22;56333;51.306;17.056;2023-05-24T05:22:05;11.94;78.03
69225;DHT22;56333;51.306;17.056;2023-05-24T05:23:34;11.91;78.03
69225;DHT22;56333;51.306;17.056;2023-05-24T05:25:04;11.92;78.05
69225;DHT22;56333;51.306;17.056;2023-05-24T05:26:34;11.92;78.00
69225;DHT22;56333;51.306;17.056;2023-05-24T05:28:03;11.91;77.93
69225;DHT22;56333;51.306;17.056;2023-05-24T05:29:32;11.93;78.00
69225;DHT22;56333;51.306;17.056;2023-05-24T05:31:02;11.95;77.90
69225;DHT22;56333;51.306;17.056;2023-05-24T05:32:33;11.95;77.85
69225;DHT22;56333;51.306;17.056;2023-05-24T05:34:04;11.99;77.78
69225;DHT22;56333;51.306;17.056;2023-05-24T05:35:35;12.01;77.78
69225;DHT22;56333;51.306;17.056;2023-05-24T05:37:04;12.06;77.53
69225;DHT22;56333;51.306;17.056;2023-05-24T05:38:33;12.08;77.32
69225;DHT22;56333;51.306;17.056;2023-05-24T05:40:02;12.15;77.45
69225;DHT22;56333;51.306;17.056;2023-05-24T05:41:31;12.22;77.50
69225;DHT22;56333;51.306;17.056;2023-05-24T05:43:01;12.29;77.45
69225;DHT22;56333;51.306;17.056;2023-05-24T05:44:31;12.38;77.20
69225;DHT22;56333;51.306;17.056;2023-05-24T05:46:01;12.48;76.97
69225;DHT22;56333;51.306;17.056;2023-05-24T05:47:30;12.55;76.45
69225;DHT22;56333;51.306;17.056;2023-05-24T05:49:00;12.63;76.25
69225;DHT22;56333;51.306;17.056;2023-05-24T05:50:29;12.66;75.38
69225;DHT22;56333;51.306;17.056;2023-05-24T05:51:58;12.69;75.05
69225;DHT22;56333;51.306;17.056;2023-05-24T05:53:27;12.73;74.95
69225;DHT22;56333;51.306;17.056;2023-05-24T05:54:55;12.73;74.80
69225;DHT22;56333;51.306;17.056;2023-05-24T05:56:24;12.76;74.50
69225;DHT22;56333;51.306;17.056;2023-05-24T05:57:53;12.74;74.32
69225;DHT22;56333;51.306;17.056;2023-05-24T05:59:22;12.79;74.38
69225;DHT22;56333;51.306;17.056;2023-05-24T06:00:51;12.78;74.15
69225;DHT22;56333;51.306;17.056;2023-05-24T06:02:20;12.78;74.07
69225;DHT22;56333;51.306;17.056;2023-05-24T06:03:49;12.80;74.05
69225;DHT22;56333;51.306;17.056;2023-05-24T06:05:18;12.83;73.65
69225;DHT22;56333;51.306;17.056;2023-05-24T06:06:47;12.83;73.47
69225;DHT22;56333;51.306;17.056;2023-05-24T06:08:16;12.84;73.13
69225;DHT22;56333;51.306;17.056;2023-05-24T06:09:46;12.82;73.22
69225;DHT22;56333;51.306;17.056;2023-05-24T06:11:15;12.82;73.30
69225;DHT22;56333;51.306;17.056;2023-05-24T06:12:44;12.82;73.38
69225;DHT22;56333;51.306;17.056;2023-05-24T06:14:13;12.85;73.57
69225;DHT22;56333;51.306;17.056;2023-05-24T06:15:43;12.86;73.55
69225;DHT22;56333;51.306;17.056;2023-05-24T06:17:13;12.86;73.72
69225;DHT22;56333;51.306;17.056;2023-05-24T06:18:42;12.89;73.63
69225;DHT22;56333;51.306;17.056;2023-05-24T06:20:12;12.93;73.40
69225;DHT22;56333;51.306;17.056;2023-05-24T06:21:41;12.91;73.43
69225;DHT22;56333;51.306;17.056;2023-05-24T06:23:11;12.91;73.35
69225;DHT22;56333;51.306;17.056;2023-05-24T06:24:41;12.90;73.43
69225;DHT22;56333;51.306;17.056;2023-05-24T06:26:09;12.92;73.20
69225;DHT22;56333;51.306;17.056;2023-05-24T06:27:38;12.90;73.13
69225;DHT22;56333;51.306;17.056;2023-05-24T06:29:07;12.85;73.10
69225;DHT22;56333;51.306;17.056;2023-05-24T06:30:37;12.84;73.28
69225;DHT22;56333;51.306;17.056;2023-05-24T06:32:06;12.82;73.35
69225;DHT22;56333;51.306;17.056;2023-05-24T06:33:35;12.82;73.50
69225;DHT22;56333;51.306;17.056;2023-05-24T06:35:05;12.77;73.18
69225;DHT22;56333;51.306;17.056;2023-05-24T06:36:35;12.77;73.35
69225;DHT22;56333;51.306;17.056;2023-05-24T06:38:05;12.76;73.38
69225;DHT22;56333;51.306;17.056;2023-05-24T06:39:35;12.76;73.35
69225;DHT22;56333;51.306;17.056;2023-05-24T06:41:04;12.77;73.18
69225;DHT22;56333;51.306;17.056;2023-05-24T06:42:33;12.75;73.38
69225;DHT22;56333;51.306;17.056;2023-05-24T06:44:03;12.75;73.43
69225;DHT22;56333;51.306;17.056;2023-05-24T06:45:33;12.76;73.50
69225;DHT22;56333;51.306;17.056;2023-05-24T06:47:02;12.75;73.47
69225;DHT22;56333;51.306;17.056;2023-05-24T06:48:32;12.77;73.55
69225;DHT22;56333;51.306;17.056;2023-05-24T06:50:02;12.79;73.40
69225;DHT22;56333;51.306;17.056;2023-05-24T06:51:33;12.79;73.45
69225;DHT22;56333;51.306;17.056;2023-05-24T06:53:02;12.79;73.20
69225;DHT22;56333;51.306;17.056;2023-05-24T06:54:30;12.74;73.03
69225;DHT22;56333;51.306;17.056;2023-05-24T06:56:00;12.74;73.10
69225;DHT22;56333;51.306;17.056;2023-05-24T06:57:29;12.74;73.18
69225;DHT22;56333;51.306;17.056;2023-05-24T06:58:58;12.74;73.40
69225;DHT22;56333;51.306;17.056;2023-05-24T07:00:27;12.76;73.40
69225;DHT22;56333;51.306;17.056;2023-05-24T07:01:56;12.76;73.43
69225;DHT22;56333;51.306;17.056;2023-05-24T07:03:25;12.76;73.43
69225;DHT22;56333;51.306;17.056;2023-05-24T07:04:53;12.78;73.40
69225;DHT22;56333;51.306;17.056;2023-05-24T07:06:22;12.77;73.22
69225;DHT22;56333;51.306;17.056;2023-05-24T07:07:51;12.76;73.20
69225;DHT22;56333;51.306;17.056;2023-05-24T07:09:19;12.76;73.07
69225;DHT22;56333;51.306;17.056;2023-05-24T07:10:48;12.76;73.15
69225;DHT22;56333;51.306;17.056;2023-05-24T07:12:17;12.74;73.18
69225;DHT22;56333;51.306;17.056;2023-05-24T07:13:46;12.73;73.32
69225;DHT22;56333;51.306;17.056;2023-05-24T07:15:15;12.74;73.53
69225;DHT22;56333;51.306;17.056;2023-05-24T07:16:43;12.79;73.63
69225;DHT22;56333;51.306;17.056;2023-05-24T07:18:12;12.82;73.63
69225;DHT22;56333;51.306;17.056;2023-05-24T07:19:41;12.86;73.65
69225;DHT22;56333;51.306;17.056;2023-05-24T07:21:10;12.90;73.65
69225;DHT22;56333;51.306;17.056;2023-05-24T07:22:38;12.91;73.53
69225;DHT22;56333;51.306;17.056;2023-05-24T07:24:07;12.94;73.50
69225;DHT22;56333;51.306;17.056;2023-05-24T07:25:36;12.97;73.43
69225;DHT22;56333;51.306;17.056;2023-05-24T07:27:06;12.99;73.28
69225;DHT22;56333;51.306;17.056;2023-05-24T07:28:34;13.01;73.43
69225;DHT22;56333;51.306;17.056;2023-05-24T07:30:06;13.02;73.45
69225;DHT22;56333;51.306;17.056;2023-05-24T07:31:36;13.06;73.50
69225;DHT22;56333;51.306;17.056;2023-05-24T07:33:05;13.10;73.63
69225;DHT22;56333;51.306;17.056;2023-05-24T07:34:34;13.15;73.63
69225;DHT22;56333;51.306;17.056;2023-05-24T07:36:05;13.22;73.72
69225;DHT22;56333;51.306;17.056;2023-05-24T07:37:34;13.28;73.65
69225;DHT22;56333;51.306;17.056;2023-05-24T07:39:03;13.32;73.38
69225;DHT22;56333;51.306;17.056;2023-05-24T07:40:33;13.32;73.20
69225;DHT22;56333;51.306;17.056;2023-05-24T07:42:02;13.32;73.10
69225;DHT22;56333;51.306;17.056;2023-05-24T07:43:32;13.34;73.07
69225;DHT22;56333;51.306;17.056;2023-05-24T07:45:01;13.35;73.03
69225;DHT22;56333;51.306;17.056;2023-05-24T07:46:33;13.37;72.95
69225;DHT22;56333;51.306;17.056;2023-05-24T07:48:02;13.38;72.88
69225;DHT22;56333;51.306;17.056;2023-05-24T07:49:31;13.40;73.00
69225;DHT22;56333;51.306;17.056;2023-05-24T07:51:00;13.41;73.03
69225;DHT22;56333;51.306;17.056;2023-05-24T07:52:29;13.45;73.13
69225;DHT22;56333;51.306;17.056;2023-05-24T07:53:58;13.47;73.15
69225;DHT22;56333;51.306;17.056;2023-05-24T07:55:26;13.49;72.97
69225;DHT22;56333;51.306;17.056;2023-05-24T07:56:56;13.55;73.07
69225;DHT22;56333;51.306;17.056;2023-05-24T07:58:26;13.60;72.68
69225;DHT22;56333;51.306;17.056;2023-05-24T07:59:55;13.62;72.53
69225;DHT22;56333;51.306;17.056;2023-05-24T08:01:35;13.66;72.57
69225;DHT22;56333;51.306;17.056;2023-05-24T08:03:04;13.70;72.35
69225;DHT22;56333;51.306;17.056;2023-05-24T08:04:32;13.74;72.28
69225;DHT22;56333;51.306;17.056;2023-05-24T08:06:01;13.80;72.30
69225;DHT22;56333;51.306;17.056;2023-05-24T08:07:30;13.84;72.18
69225;DHT22;56333;51.306;17.056;2023-05-24T08:08:59;13.90;71.80
69225;DHT22;56333;51.306;17.056;2023-05-24T08:10:31;13.96;71.43
69225;DHT22;56333;51.306;17.056;2023-05-24T08:12:00;14.02;71.25
69225;DHT22;56333;51.306;17.056;2023-05-24T08:13:30;14.07;70.80
69225;DHT22;56333;51.306;17.056;2023-05-24T08:14:59;14.13;70.50
69225;DHT22;56333;51.306;17.056;2023-05-24T08:16:30;14.18;69.93
69225;DHT22;56333;51.306;17.056;2023-05-24T08:17:58;14.23;69.75
69225;DHT22;56333;51.306;17.056;2023-05-24T08:19:28;14.28;69.32
69225;DHT22;56333;51.306;17.056;2023-05-24T08:20:58;14.34;69.20
69225;DHT22;56333;51.306;17.056;2023-05-24T08:22:27;14.39;69.28
69225;DHT22;56333;51.306;17.056;2023-05-24T08:23:57;14.44;69.13
69225;DHT22;56333;51.306;17.056;2023-05-24T08:25:25;14.51;69.15
69225;DHT22;56333;51.306;17.056;2023-05-24T08:26:54;14.56;68.97
69225;DHT22;56333;51.306;17.056;2023-05-24T08:28:24;14.62;68.80
69225;DHT22;56333;51.306;17.056;2023-05-24T08:29:54;14.70;68.57
69225;DHT22;56333;51.306;17.056;2023-05-24T08:31:22;14.76;68.22
69225;DHT22;56333;51.306;17.056;2023-05-24T08:32:51;14.81;67.93
69225;DHT22;56333;51.306;17.056;2023-05-24T08:34:21;14.82;67.72
69225;DHT22;56333;51.306;17.056;2023-05-24T08:35:51;14.83;67.55
69225;DHT22;56333;51.306;17.056;2023-05-24T08:37:19;14.83;67.65
69225;DHT22;56333;51.306;17.056;2023-05-24T08:38:48;14.80;67.53
69225;DHT22;56333;51.306;17.056;2023-05-24T08:40:17;14.77;67.90
69225;DHT22;56333;51.306;17.056;2023-05-24T08:41:48;14.75;68.00
69225;DHT22;56333;51.306;17.056;2023-05-24T08:43:18;14.73;68.20
69225;DHT22;56333;51.306;17.056;2023-05-24T08:44:56;14.74;68.22
69225;DHT22;56333;51.306;17.056;2023-05-24T08:46:33;14.78;68.20
69225;DHT22;56333;51.306;17.056;2023-05-24T08:48:02;14.85;67.80
69225;DHT22;56333;51.306;17.056;2023-05-24T08:49:32;14.94;67.53
69225;DHT22;56333;51.306;17.056;2023-05-24T08:51:02;15.01;67.00
69225;DHT22;56333;51.306;17.056;2023-05-24T08:52:32;15.06;66.50
69225;DHT22;56333;51.306;17.056;2023-05-24T08:54:03;15.10;66.15
69225;DHT22;56333;51.306;17.056;2023-05-24T08:55:33;15.16;65.75
69225;DHT22;56333;51.306;17.056;2023-05-24T08:57:02;15.17;64.85
69225;DHT22;56333;51.306;17.056;2023-05-24T08:58:33;15.22;65.15
69225;DHT22;56333;51.306;17.056;2023-05-24T09:00:03;15.31;65.15
69225;DHT22;56333;51.306;17.056;2023-05-24T09:01:35;15.40;64.72
69225;DHT22;56333;51.306;17.056;2023-05-24T09:03:06;15.49;64.40
69225;DHT22;56333;51.306;17.056;2023-05-24T09:04:35;15.54;63.78
69225;DHT22;56333;51.306;17.056;2023-05-24T09:06:08;15.63;63.85
69225;DHT22;56333;51.306;17.056;2023-05-24T09:07:42;15.65;63.50
69225;DHT22;56333;51.306;17.056;2023-05-24T09:09:12;15.65;63.00
69225;DHT22;56333;51.306;17.056;2023-05-24T09:10:43;15.69;63.10
69225;DHT22;56333;51.306;17.056;2023-05-24T09:12:13;15.72;63.67
69225;DHT22;56333;51.306;17.056;2023-05-24T09:13:44;15.79;62.97
69225;DHT22;56333;51.306;17.056;2023-05-24T09:15:14;15.83;62.88
69225;DHT22;56333;51.306;17.056;2023-05-24T09:16:42;15.87;62.92
69225;DHT22;56333;51.306;17.056;2023-05-24T09:18:11;15.88;63.00
69225;DHT22;56333;51.306;17.056;2023-05-24T09:19:42;15.91;63.22
69225;DHT22;56333;51.306;17.056;2023-05-24T09:21:12;15.98;63.17
69225;DHT22;56333;51.306;17.056;2023-05-24T09:22:41;16.02;62.78
69225;DHT22;56333;51.306;17.056;2023-05-24T09:24:15;16.04;62.33